Aviation Digital Data Service (ADDS)

Output produced by METARs form (0117 UTC 17 July 2019)
found at http://www.aviationweather.gov/metar/data/
 
METAR text: YAYE 170100Z AUTO 09013KT 9999 // NCD 14/05 Q1026
Conditions at: YAYE (AYERS ROCK , AU) observed 0100 UTC 17 July 2019
Temperature: 14.0°C (57°F)
Dewpoint: 5.0°C (41°F) [RH = 55%]
Pressure (altimeter): 30.30 inches Hg (1026.0 mb)
Winds: from the E (90 degrees) at 15 MPH (13 knots; 6.7 m/s)
Visibility: 6 or more miles (10+ km)
Ceiling: at least 12,000 feet AGL
Clouds: sky clear below 12,000 feet AGL
Weather: no significant weather observed at this time

METAR text: YAYE 170000Z AUTO 11008KT 9999 // NCD 12/05 Q1026
Conditions at: YAYE (AYERS ROCK , AU) observed 0000 UTC 17 July 2019
Temperature: 12.0°C (54°F)
Dewpoint: 5.0°C (41°F) [RH = 62%]
Pressure (altimeter): 30.30 inches Hg (1026.0 mb)
Winds: from the ESE (110 degrees) at 9 MPH (8 knots; 4.1 m/s)
Visibility: 6 or more miles (10+ km)
Ceiling: at least 12,000 feet AGL
Clouds: sky clear below 12,000 feet AGL
Weather: no significant weather observed at this time

METAR text: YAYE 162300Z AUTO 15006KT 9999 // NCD 07/02 Q1026
Conditions at: YAYE (AYERS ROCK , AU) observed 2300 UTC 16 July 2019
Temperature: 7.0°C (45°F)
Dewpoint: 2.0°C (36°F) [RH = 70%]
Pressure (altimeter): 30.30 inches Hg (1026.0 mb)
Winds: from the SSE (150 degrees) at 7 MPH (6 knots; 3.1 m/s)
Visibility: 6 or more miles (10+ km)
Ceiling: at least 12,000 feet AGL
Clouds: sky clear below 12,000 feet AGL
Weather: no significant weather observed at this time

METAR text: YAYE 162200Z AUTO 14007KT 9999 // NCD 05/01 Q1025
Conditions at: YAYE (AYERS ROCK , AU) observed 2200 UTC 16 July 2019
Temperature: 5.0°C (41°F)
Dewpoint: 1.0°C (34°F) [RH = 75%]
Pressure (altimeter): 30.27 inches Hg (1025.0 mb)
Winds: from the SE (140 degrees) at 8 MPH (7 knots; 3.6 m/s)
Visibility: 6 or more miles (10+ km)
Ceiling: at least 12,000 feet AGL
Clouds: sky clear below 12,000 feet AGL
Weather: no significant weather observed at this time

METAR text: YAYE 162100Z AUTO 14008KT 9999 // NCD 06/01 Q1025
Conditions at: YAYE (AYERS ROCK , AU) observed 2100 UTC 16 July 2019
Temperature: 6.0°C (43°F)
Dewpoint: 1.0°C (34°F) [RH = 70%]
Pressure (altimeter): 30.27 inches Hg (1025.0 mb)
Winds: from the SE (140 degrees) at 9 MPH (8 knots; 4.1 m/s)
Visibility: 6 or more miles (10+ km)
Ceiling: at least 12,000 feet AGL
Clouds: sky clear below 12,000 feet AGL
Weather: no significant weather observed at this time

METAR text: YAYE 162000Z AUTO 16006KT 9999 // NCD 05/M00 Q1025
Conditions at: YAYE (AYERS ROCK , AU) observed 2000 UTC 16 July 2019
Temperature: 5.0°C (41°F)
Dewpoint: 0.0°C (32°F) [RH = 70%]
Pressure (altimeter): 30.27 inches Hg (1025.0 mb)
Winds: from the SSE (160 degrees) at 7 MPH (6 knots; 3.1 m/s)
Visibility: 6 or more miles (10+ km)
Ceiling: at least 12,000 feet AGL
Clouds: sky clear below 12,000 feet AGL
Weather: no significant weather observed at this time

METAR text: YAYE 161900Z AUTO 17005KT 9999 // NCD 04/M02 Q1025
Conditions at: YAYE (AYERS ROCK , AU) observed 1900 UTC 16 July 2019
Temperature: 4.0°C (39°F)
Dewpoint: -2.0°C (28°F) [RH = 65%]
Pressure (altimeter): 30.27 inches Hg (1025.0 mb)
Winds: from the S (170 degrees) at 6 MPH (5 knots; 2.6 m/s)
Visibility: 6 or more miles (10+ km)
Ceiling: at least 12,000 feet AGL
Clouds: sky clear below 12,000 feet AGL
Weather: no significant weather observed at this time

METAR text: YAYE 161800Z AUTO 14005KT 9999 // NCD 05/M01 Q1025
Conditions at: YAYE (AYERS ROCK , AU) observed 1800 UTC 16 July 2019
Temperature: 5.0°C (41°F)
Dewpoint: -1.0°C (30°F) [RH = 65%]
Pressure (altimeter): 30.27 inches Hg (1025.0 mb)
Winds: from the SE (140 degrees) at 6 MPH (5 knots; 2.6 m/s)
Visibility: 6 or more miles (10+ km)
Ceiling: at least 12,000 feet AGL
Clouds: sky clear below 12,000 feet AGL
Weather: no significant weather observed at this time

METAR text: YAYE 161700Z AUTO 13006KT 9999 // NCD 06/M02 Q1025
Conditions at: YAYE (AYERS ROCK , AU) observed 1700 UTC 16 July 2019
Temperature: 6.0°C (43°F)
Dewpoint: -2.0°C (28°F) [RH = 56%]
Pressure (altimeter): 30.27 inches Hg (1025.0 mb)
Winds: from the SE (130 degrees) at 7 MPH (6 knots; 3.1 m/s)
Visibility: 6 or more miles (10+ km)
Ceiling: at least 12,000 feet AGL
Clouds: sky clear below 12,000 feet AGL
Weather: no significant weather observed at this time

METAR text: YAYE 161600Z AUTO 15007KT 9999 // NCD 07/M02 Q1026
Conditions at: YAYE (AYERS ROCK , AU) observed 1600 UTC 16 July 2019
Temperature: 7.0°C (45°F)
Dewpoint: -2.0°C (28°F) [RH = 53%]
Pressure (altimeter): 30.30 inches Hg (1026.0 mb)
Winds: from the SSE (150 degrees) at 8 MPH (7 knots; 3.6 m/s)
Visibility: 6 or more miles (10+ km)
Ceiling: at least 12,000 feet AGL
Clouds: sky clear below 12,000 feet AGL
Weather: no significant weather observed at this time

METAR text: YAYE 161500Z AUTO 13006KT 9999 // NCD 09/M02 Q1026
Conditions at: YAYE (AYERS ROCK , AU) observed 1500 UTC 16 July 2019
Temperature: 9.0°C (48°F)
Dewpoint: -2.0°C (28°F) [RH = 46%]
Pressure (altimeter): 30.30 inches Hg (1026.0 mb)
Winds: from the SE (130 degrees) at 7 MPH (6 knots; 3.1 m/s)
Visibility: 6 or more miles (10+ km)
Ceiling: at least 12,000 feet AGL
Clouds: sky clear below 12,000 feet AGL
Weather: no significant weather observed at this time

METAR text: YAYE 161400Z AUTO 15007KT 9999 // NCD 09/M03 Q1027
Conditions at: YAYE (AYERS ROCK , AU) observed 1400 UTC 16 July 2019
Temperature: 9.0°C (48°F)
Dewpoint: -3.0°C (27°F) [RH = 43%]
Pressure (altimeter): 30.32 inches Hg (1027.0 mb)
Winds: from the SSE (150 degrees) at 8 MPH (7 knots; 3.6 m/s)
Visibility: 6 or more miles (10+ km)
Ceiling: at least 12,000 feet AGL
Clouds: sky clear below 12,000 feet AGL
Weather: no significant weather observed at this time

METAR text: YAYE 161300Z AUTO 16006KT 9999 // NCD 09/M03 Q1026
Conditions at: YAYE (AYERS ROCK , AU) observed 1300 UTC 16 July 2019
Temperature: 9.0°C (48°F)
Dewpoint: -3.0°C (27°F) [RH = 43%]
Pressure (altimeter): 30.30 inches Hg (1026.0 mb)
Winds: from the SSE (160 degrees) at 7 MPH (6 knots; 3.1 m/s)
Visibility: 6 or more miles (10+ km)
Ceiling: at least 12,000 feet AGL
Clouds: sky clear below 12,000 feet AGL
Weather: no significant weather observed at this time

METAR text: YAYE 161200Z AUTO 16007KT 9999 // NCD 10/M03 Q1026
Conditions at: YAYE (AYERS ROCK , AU) observed 1200 UTC 16 July 2019
Temperature: 10.0°C (50°F)
Dewpoint: -3.0°C (27°F) [RH = 40%]
Pressure (altimeter): 30.30 inches Hg (1026.0 mb)
Winds: from the SSE (160 degrees) at 8 MPH (7 knots; 3.6 m/s)
Visibility: 6 or more miles (10+ km)
Ceiling: at least 12,000 feet AGL
Clouds: sky clear below 12,000 feet AGL
Weather: no significant weather observed at this time

METAR text: YAYE 161100Z AUTO 14005KT 9999 // NCD 12/M03 Q1026
Conditions at: YAYE (AYERS ROCK , AU) observed 1100 UTC 16 July 2019
Temperature: 12.0°C (54°F)
Dewpoint: -3.0°C (27°F) [RH = 35%]
Pressure (altimeter): 30.30 inches Hg (1026.0 mb)
Winds: from the SE (140 degrees) at 6 MPH (5 knots; 2.6 m/s)
Visibility: 6 or more miles (10+ km)
Ceiling: at least 12,000 feet AGL
Clouds: sky clear below 12,000 feet AGL
Weather: no significant weather observed at this time

METAR text: YAYE 161000Z AUTO 10004KT 9999 // NCD 14/M03 Q1025
Conditions at: YAYE (AYERS ROCK , AU) observed 1000 UTC 16 July 2019
Temperature: 14.0°C (57°F)
Dewpoint: -3.0°C (27°F) [RH = 31%]
Pressure (altimeter): 30.27 inches Hg (1025.0 mb)
Winds: from the E (100 degrees) at 5 MPH (4 knots; 2.1 m/s)
Visibility: 6 or more miles (10+ km)
Ceiling: at least 12,000 feet AGL
Clouds: sky clear below 12,000 feet AGL
Weather: no significant weather observed at this time

METAR text: YAYE 160900Z AUTO 11006KT 9999 // NCD 16/M03 Q1025
Conditions at: YAYE (AYERS ROCK , AU) observed 0900 UTC 16 July 2019
Temperature: 16.0°C (61°F)
Dewpoint: -3.0°C (27°F) [RH = 27%]
Pressure (altimeter): 30.27 inches Hg (1025.0 mb)
Winds: from the ESE (110 degrees) at 7 MPH (6 knots; 3.1 m/s)
Visibility: 6 or more miles (10+ km)
Ceiling: at least 12,000 feet AGL
Clouds: sky clear below 12,000 feet AGL
Weather: no significant weather observed at this time

METAR text: YAYE 160800Z AUTO 11009KT 9999 // NCD 19/M02 Q1025
Conditions at: YAYE (AYERS ROCK , AU) observed 0800 UTC 16 July 2019
Temperature: 19.0°C (66°F)
Dewpoint: -2.0°C (28°F) [RH = 24%]
Pressure (altimeter): 30.27 inches Hg (1025.0 mb)
Winds: from the ESE (110 degrees) at 10 MPH (9 knots; 4.6 m/s)
Visibility: 6 or more miles (10+ km)
Ceiling: at least 12,000 feet AGL
Clouds: sky clear below 12,000 feet AGL
Weather: no significant weather observed at this time

METAR text: YAYE 160700Z AUTO 13009KT 9999 // NCD 19/M03 Q1025
Conditions at: YAYE (AYERS ROCK , AU) observed 0700 UTC 16 July 2019
Temperature: 19.0°C (66°F)
Dewpoint: -3.0°C (27°F) [RH = 22%]
Pressure (altimeter): 30.27 inches Hg (1025.0 mb)
Winds: from the SE (130 degrees) at 10 MPH (9 knots; 4.6 m/s)
Visibility: 6 or more miles (10+ km)
Ceiling: at least 12,000 feet AGL
Clouds: sky clear below 12,000 feet AGL
Weather: no significant weather observed at this time

METAR text: YAYE 160600Z AUTO 11009KT 9999 // NCD 19/M02 Q1025
Conditions at: YAYE (AYERS ROCK , AU) observed 0600 UTC 16 July 2019
Temperature: 19.0°C (66°F)
Dewpoint: -2.0°C (28°F) [RH = 24%]
Pressure (altimeter): 30.27 inches Hg (1025.0 mb)
Winds: from the ESE (110 degrees) at 10 MPH (9 knots; 4.6 m/s)
Visibility: 6 or more miles (10+ km)
Ceiling: at least 12,000 feet AGL
Clouds: sky clear below 12,000 feet AGL
Weather: no significant weather observed at this time

METAR text: YAYE 160500Z AUTO 10009KT 9999 // NCD 17/00 Q1026
Conditions at: YAYE (AYERS ROCK , AU) observed 0500 UTC 16 July 2019
Temperature: 17.0°C (63°F)
Dewpoint: 0.0°C (32°F) [RH = 32%]
Pressure (altimeter): 30.30 inches Hg (1026.0 mb)
Winds: from the E (100 degrees) at 10 MPH (9 knots; 4.6 m/s)
Visibility: 6 or more miles (10+ km)
Ceiling: at least 12,000 feet AGL
Clouds: sky clear below 12,000 feet AGL
Weather: no significant weather observed at this time

METAR text: YAYE 160400Z AUTO 09010KT 9999 // NCD 17/02 Q1027
Conditions at: YAYE (AYERS ROCK , AU) observed 0400 UTC 16 July 2019
Temperature: 17.0°C (63°F)
Dewpoint: 2.0°C (36°F) [RH = 36%]
Pressure (altimeter): 30.32 inches Hg (1027.0 mb)
Winds: from the E (90 degrees) at 12 MPH (10 knots; 5.1 m/s)
Visibility: 6 or more miles (10+ km)
Ceiling: at least 12,000 feet AGL
Clouds: sky clear below 12,000 feet AGL
Weather: no significant weather observed at this time

METAR text: YAYE 160300Z AUTO 11012KT 9999 // NCD 15/02 Q1028
Conditions at: YAYE (AYERS ROCK , AU) observed 0300 UTC 16 July 2019
Temperature: 15.0°C (59°F)
Dewpoint: 2.0°C (36°F) [RH = 41%]
Pressure (altimeter): 30.35 inches Hg (1028.0 mb)
Winds: from the ESE (110 degrees) at 14 MPH (12 knots; 6.2 m/s)
Visibility: 6 or more miles (10+ km)
Ceiling: at least 12,000 feet AGL
Clouds: sky clear below 12,000 feet AGL
Weather: no significant weather observed at this time

METAR text: YAYE 160200Z AUTO 11013KT 9999 // NCD 14/02 Q1029
Conditions at: YAYE (AYERS ROCK , AU) observed 0200 UTC 16 July 2019
Temperature: 14.0°C (57°F)
Dewpoint: 2.0°C (36°F) [RH = 44%]
Pressure (altimeter): 30.38 inches Hg (1029.0 mb)
Winds: from the ESE (110 degrees) at 15 MPH (13 knots; 6.7 m/s)
Visibility: 6 or more miles (10+ km)
Ceiling: at least 12,000 feet AGL
Clouds: sky clear below 12,000 feet AGL
Weather: no significant weather observed at this time

METAR text: YAYE 160100Z AUTO 11013KT 9999 // NCD 13/02 Q1029
Conditions at: YAYE (AYERS ROCK , AU) observed 0100 UTC 16 July 2019
Temperature: 13.0°C (55°F)
Dewpoint: 2.0°C (36°F) [RH = 47%]
Pressure (altimeter): 30.38 inches Hg (1029.0 mb)
Winds: from the ESE (110 degrees) at 15 MPH (13 knots; 6.7 m/s)
Visibility: 6 or more miles (10+ km)
Ceiling: at least 12,000 feet AGL
Clouds: sky clear below 12,000 feet AGL
Weather: no significant weather observed at this time

METAR text: YAYE 160000Z AUTO 12010KT 9999 // NCD 10/03 Q1030
Conditions at: YAYE (AYERS ROCK , AU) observed 0000 UTC 16 July 2019
Temperature: 10.0°C (50°F)
Dewpoint: 3.0°C (37°F) [RH = 62%]
Pressure (altimeter): 30.41 inches Hg (1030.0 mb)
Winds: from the ESE (120 degrees) at 12 MPH (10 knots; 5.1 m/s)
Visibility: 6 or more miles (10+ km)
Ceiling: at least 12,000 feet AGL
Clouds: sky clear below 12,000 feet AGL
Weather: no significant weather observed at this time

METAR text: YAYE 152300Z AUTO 14007KT 9999 // NCD 06/02 Q1029
Conditions at: YAYE (AYERS ROCK , AU) observed 2300 UTC 15 July 2019
Temperature: 6.0°C (43°F)
Dewpoint: 2.0°C (36°F) [RH = 75%]
Pressure (altimeter): 30.38 inches Hg (1029.0 mb)
Winds: from the SE (140 degrees) at 8 MPH (7 knots; 3.6 m/s)
Visibility: 6 or more miles (10+ km)
Ceiling: at least 12,000 feet AGL
Clouds: sky clear below 12,000 feet AGL
Weather: no significant weather observed at this time

METAR text: YAYE 152200Z AUTO 19008KT 9999 // NCD 04/02 Q1029
Conditions at: YAYE (AYERS ROCK , AU) observed 2200 UTC 15 July 2019
Temperature: 4.0°C (39°F)
Dewpoint: 2.0°C (36°F) [RH = 87%]
Pressure (altimeter): 30.38 inches Hg (1029.0 mb)
Winds: from the S (190 degrees) at 9 MPH (8 knots; 4.1 m/s)
Visibility: 6 or more miles (10+ km)
Ceiling: at least 12,000 feet AGL
Clouds: sky clear below 12,000 feet AGL
Weather: no significant weather observed at this time

METAR text: YAYE 152100Z AUTO 17005KT 9999 // NCD 04/02 Q1028
Conditions at: YAYE (AYERS ROCK , AU) observed 2100 UTC 15 July 2019
Temperature: 4.0°C (39°F)
Dewpoint: 2.0°C (36°F) [RH = 87%]
Pressure (altimeter): 30.35 inches Hg (1028.0 mb)
Winds: from the S (170 degrees) at 6 MPH (5 knots; 2.6 m/s)
Visibility: 6 or more miles (10+ km)
Ceiling: at least 12,000 feet AGL
Clouds: sky clear below 12,000 feet AGL
Weather: no significant weather observed at this time

METAR text: YAYE 152000Z AUTO 15007KT 9999 // NCD 06/03 Q1027
Conditions at: YAYE (AYERS ROCK , AU) observed 2000 UTC 15 July 2019
Temperature: 6.0°C (43°F)
Dewpoint: 3.0°C (37°F) [RH = 81%]
Pressure (altimeter): 30.32 inches Hg (1027.0 mb)
Winds: from the SSE (150 degrees) at 8 MPH (7 knots; 3.6 m/s)
Visibility: 6 or more miles (10+ km)
Ceiling: at least 12,000 feet AGL
Clouds: sky clear below 12,000 feet AGL
Weather: no significant weather observed at this time

METAR text: YAYE 151900Z AUTO 12008KT 9999 // NCD 08/03 Q1027
Conditions at: YAYE (AYERS ROCK , AU) observed 1900 UTC 15 July 2019
Temperature: 8.0°C (46°F)
Dewpoint: 3.0°C (37°F) [RH = 71%]
Pressure (altimeter): 30.32 inches Hg (1027.0 mb)
Winds: from the ESE (120 degrees) at 9 MPH (8 knots; 4.1 m/s)
Visibility: 6 or more miles (10+ km)
Ceiling: at least 12,000 feet AGL
Clouds: sky clear below 12,000 feet AGL
Weather: no significant weather observed at this time

METAR text: YAYE 151800Z AUTO 13008KT 9999 // NCD 09/03 Q1028
Conditions at: YAYE (AYERS ROCK , AU) observed 1800 UTC 15 July 2019
Temperature: 9.0°C (48°F)
Dewpoint: 3.0°C (37°F) [RH = 66%]
Pressure (altimeter): 30.35 inches Hg (1028.0 mb)
Winds: from the SE (130 degrees) at 9 MPH (8 knots; 4.1 m/s)
Visibility: 6 or more miles (10+ km)
Ceiling: at least 12,000 feet AGL
Clouds: sky clear below 12,000 feet AGL
Weather: no significant weather observed at this time

METAR text: YAYE 151700Z AUTO 12008KT 9999 // NCD 10/03 Q1028
Conditions at: YAYE (AYERS ROCK , AU) observed 1700 UTC 15 July 2019
Temperature: 10.0°C (50°F)
Dewpoint: 3.0°C (37°F) [RH = 62%]
Pressure (altimeter): 30.35 inches Hg (1028.0 mb)
Winds: from the ESE (120 degrees) at 9 MPH (8 knots; 4.1 m/s)
Visibility: 6 or more miles (10+ km)
Ceiling: at least 12,000 feet AGL
Clouds: sky clear below 12,000 feet AGL
Weather: no significant weather observed at this time

METAR text: YAYE 151600Z AUTO 13007KT 9999 // NCD 09/03 Q1028
Conditions at: YAYE (AYERS ROCK , AU) observed 1600 UTC 15 July 2019
Temperature: 9.0°C (48°F)
Dewpoint: 3.0°C (37°F) [RH = 66%]
Pressure (altimeter): 30.35 inches Hg (1028.0 mb)
Winds: from the SE (130 degrees) at 8 MPH (7 knots; 3.6 m/s)
Visibility: 6 or more miles (10+ km)
Ceiling: at least 12,000 feet AGL
Clouds: sky clear below 12,000 feet AGL
Weather: no significant weather observed at this time

METAR text: YAYE 151500Z AUTO 12006KT 9999 // NCD 10/02 Q1028
Conditions at: YAYE (AYERS ROCK , AU) observed 1500 UTC 15 July 2019
Temperature: 10.0°C (50°F)
Dewpoint: 2.0°C (36°F) [RH = 57%]
Pressure (altimeter): 30.35 inches Hg (1028.0 mb)
Winds: from the ESE (120 degrees) at 7 MPH (6 knots; 3.1 m/s)
Visibility: 6 or more miles (10+ km)
Ceiling: at least 12,000 feet AGL
Clouds: sky clear below 12,000 feet AGL
Weather: no significant weather observed at this time

METAR text: YAYE 151400Z AUTO 14006KT 9999 // NCD 10/01 Q1028
Conditions at: YAYE (AYERS ROCK , AU) observed 1400 UTC 15 July 2019
Temperature: 10.0°C (50°F)
Dewpoint: 1.0°C (34°F) [RH = 53%]
Pressure (altimeter): 30.35 inches Hg (1028.0 mb)
Winds: from the SE (140 degrees) at 7 MPH (6 knots; 3.1 m/s)
Visibility: 6 or more miles (10+ km)
Ceiling: at least 12,000 feet AGL
Clouds: sky clear below 12,000 feet AGL
Weather: no significant weather observed at this time